sensor_id;sensor_type;location;lat;lon;timestamp;P1;durP1;ratioP1;P2;durP2;ratioP2
3979;SDS011;2004;52.452;13.120;2023-12-20T00:04:44;193.47;;;13.97;;
3979;SDS011;2004;52.452;13.120;2023-12-20T00:12:35;188.77;;;13.17;;
3979;SDS011;2004;52.452;13.120;2023-12-20T00:20:26;189.67;;;13.50;;
3979;SDS011;2004;52.452;13.120;2023-12-20T00:28:16;190.53;;;13.30;;
3979;SDS011;2004;52.452;13.120;2023-12-20T00:36:07;192.47;;;13.23;;
3979;SDS011;2004;52.452;13.120;2023-12-20T00:43:59;191.43;;;13.37;;
3979;SDS011;2004;52.452;13.120;2023-12-20T00:51:50;190.47;;;13.77;;
3979;SDS011;2004;52.452;13.120;2023-12-20T00:59:42;190.80;;;13.67;;
3979;SDS011;2004;52.452;13.120;2023-12-20T01:07:34;195.77;;;15.20;;
3979;SDS011;2004;52.452;13.120;2023-12-20T01:15:24;192.60;;;15.30;;
3979;SDS011;2004;52.452;13.120;2023-12-20T01:23:15;192.37;;;14.00;;
3979;SDS011;2004;52.452;13.120;2023-12-20T01:31:05;190.07;;;13.83;;
3979;SDS011;2004;52.452;13.120;2023-12-20T01:38:57;194.67;;;14.17;;
3979;SDS011;2004;52.452;13.120;2023-12-20T01:46:48;194.27;;;15.50;;
3979;SDS011;2004;52.452;13.120;2023-12-20T01:54:39;194.90;;;14.90;;
3979;SDS011;2004;52.452;13.120;2023-12-20T02:02:31;195.37;;;14.77;;
3979;SDS011;2004;52.452;13.120;2023-12-20T02:10:23;196.57;;;17.17;;
3979;SDS011;2004;52.452;13.120;2023-12-20T02:18:14;198.50;;;17.20;;
3979;SDS011;2004;52.452;13.120;2023-12-20T02:26:06;202.17;;;18.03;;
3979;SDS011;2004;52.452;13.120;2023-12-20T02:42:16;203.03;;;19.03;;
3979;SDS011;2004;52.452;13.120;2023-12-20T02:50:07;208.77;;;20.97;;
3979;SDS011;2004;52.452;13.120;2023-12-20T02:57:58;208.67;;;21.07;;
3979;SDS011;2004;52.452;13.120;2023-12-20T03:05:50;206.97;;;21.10;;
3979;SDS011;2004;52.452;13.120;2023-12-20T03:13:42;210.03;;;22.47;;
3979;SDS011;2004;52.452;13.120;2023-12-20T03:21:32;203.90;;;19.07;;
3979;SDS011;2004;52.452;13.120;2023-12-20T03:29:23;207.70;;;20.50;;
3979;SDS011;2004;52.452;13.120;2023-12-20T03:37:14;205.30;;;19.93;;
3979;SDS011;2004;52.452;13.120;2023-12-20T03:45:04;205.50;;;19.20;;
3979;SDS011;2004;52.452;13.120;2023-12-20T03:52:55;205.40;;;18.70;;
3979;SDS011;2004;52.452;13.120;2023-12-20T04:00:46;213.90;;;15.63;;
3979;SDS011;2004;52.452;13.120;2023-12-20T04:08:36;204.47;;;14.13;;
3979;SDS011;2004;52.452;13.120;2023-12-20T04:16:27;204.07;;;13.47;;
3979;SDS011;2004;52.452;13.120;2023-12-20T04:24:18;203.60;;;12.97;;
3979;SDS011;2004;52.452;13.120;2023-12-20T04:32:08;194.03;;;10.60;;
3979;SDS011;2004;52.452;13.120;2023-12-20T04:39:59;196.33;;;10.27;;
3979;SDS011;2004;52.452;13.120;2023-12-20T04:47:50;201.43;;;9.27;;
3979;SDS011;2004;52.452;13.120;2023-12-20T04:55:41;205.07;;;10.23;;
3979;SDS011;2004;52.452;13.120;2023-12-20T05:03:32;201.50;;;10.00;;
3979;SDS011;2004;52.452;13.120;2023-12-20T05:11:23;190.63;;;8.90;;
3979;SDS011;2004;52.452;13.120;2023-12-20T05:19:13;195.70;;;9.37;;
3979;SDS011;2004;52.452;13.120;2023-12-20T05:27:04;192.90;;;9.10;;
3979;SDS011;2004;52.452;13.120;2023-12-20T05:34:55;190.37;;;9.13;;
3979;SDS011;2004;52.452;13.120;2023-12-20T05:42:45;197.97;;;9.87;;
3979;SDS011;2004;52.452;13.120;2023-12-20T05:50:36;194.80;;;9.00;;
3979;SDS011;2004;52.452;13.120;2023-12-20T05:58:26;200.13;;;9.50;;
3979;SDS011;2004;52.452;13.120;2023-12-20T06:06:17;196.57;;;8.93;;
3979;SDS011;2004;52.452;13.120;2023-12-20T06:14:08;202.90;;;9.00;;
3979;SDS011;2004;52.452;13.120;2023-12-20T06:21:58;189.90;;;9.10;;
3979;SDS011;2004;52.452;13.120;2023-12-20T06:29:49;193.80;;;8.77;;
3979;SDS011;2004;52.452;13.120;2023-12-20T06:37:39;200.90;;;9.90;;
3979;SDS011;2004;52.452;13.120;2023-12-20T06:45:32;196.70;;;9.30;;
3979;SDS011;2004;52.452;13.120;2023-12-20T06:53:23;192.10;;;9.43;;
3979;SDS011;2004;52.452;13.120;2023-12-20T07:01:14;191.50;;;9.20;;
3979;SDS011;2004;52.452;13.120;2023-12-20T07:09:05;206.23;;;9.57;;
3979;SDS011;2004;52.452;13.120;2023-12-20T07:16:52;189.80;;;8.97;;
3979;SDS011;2004;52.452;13.120;2023-12-20T07:24:43;191.70;;;8.97;;
3979;SDS011;2004;52.452;13.120;2023-12-20T07:32:35;197.40;;;10.00;;
3979;SDS011;2004;52.452;13.120;2023-12-20T07:40:36;198.37;;;9.50;;
3979;SDS011;2004;52.452;13.120;2023-12-20T07:48:28;198.87;;;9.97;;
3979;SDS011;2004;52.452;13.120;2023-12-20T07:56:20;194.63;;;9.60;;
3979;SDS011;2004;52.452;13.120;2023-12-20T08:04:21;195.57;;;9.33;;
3979;SDS011;2004;52.452;13.120;2023-12-20T08:12:13;206.33;;;9.93;;
3979;SDS011;2004;52.452;13.120;2023-12-20T08:20:05;192.83;;;9.30;;
3979;SDS011;2004;52.452;13.120;2023-12-20T08:28:02;211.70;;;9.27;;
3979;SDS011;2004;52.452;13.120;2023-12-20T08:35:56;191.27;;;8.60;;
3979;SDS011;2004;52.452;13.120;2023-12-20T08:43:59;193.43;;;9.03;;
3979;SDS011;2004;52.452;13.120;2023-12-20T08:51:55;193.67;;;9.77;;
3979;SDS011;2004;52.452;13.120;2023-12-20T09:08:02;193.07;;;9.03;;
3979;SDS011;2004;52.452;13.120;2023-12-20T09:15:57;183.70;;;8.00;;
3979;SDS011;2004;52.452;13.120;2023-12-20T09:23:50;198.33;;;8.97;;
3979;SDS011;2004;52.452;13.120;2023-12-20T09:31:45;188.87;;;8.57;;
3979;SDS011;2004;52.452;13.120;2023-12-20T09:39:52;195.03;;;8.83;;
3979;SDS011;2004;52.452;13.120;2023-12-20T09:47:50;204.53;;;9.47;;
3979;SDS011;2004;52.452;13.120;2023-12-20T09:55:52;198.23;;;9.23;;
3979;SDS011;2004;52.452;13.120;2023-12-20T10:04:12;188.23;;;8.80;;
3979;SDS011;2004;52.452;13.120;2023-12-20T10:12:10;191.87;;;8.17;;
3979;SDS011;2004;52.452;13.120;2023-12-20T10:20:07;187.37;;;9.17;;
3979;SDS011;2004;52.452;13.120;2023-12-20T10:36:06;193.10;;;9.70;;
3979;SDS011;2004;52.452;13.120;2023-12-20T10:44:01;191.07;;;9.67;;
3979;SDS011;2004;52.452;13.120;2023-12-20T10:51:58;194.97;;;10.03;;
3979;SDS011;2004;52.452;13.120;2023-12-20T11:00:00;214.07;;;9.70;;
3979;SDS011;2004;52.452;13.120;2023-12-20T11:08:05;195.40;;;9.23;;
3979;SDS011;2004;52.452;13.120;2023-12-20T11:16:42;189.27;;;8.80;;
3979;SDS011;2004;52.452;13.120;2023-12-20T11:24:33;187.10;;;9.03;;
3979;SDS011;2004;52.452;13.120;2023-12-20T11:32:28;190.93;;;9.80;;
3979;SDS011;2004;52.452;13.120;2023-12-20T11:40:29;194.80;;;9.50;;
3979;SDS011;2004;52.452;13.120;2023-12-20T11:48:28;190.60;;;9.20;;
3979;SDS011;2004;52.452;13.120;2023-12-20T11:56:32;195.70;;;9.60;;
3979;SDS011;2004;52.452;13.120;2023-12-20T12:04:34;197.57;;;10.00;;
3979;SDS011;2004;52.452;13.120;2023-12-20T12:12:28;193.03;;;9.33;;
3979;SDS011;2004;52.452;13.120;2023-12-20T12:37:10;187.50;;;9.77;;
3979;SDS011;2004;52.452;13.120;2023-12-20T12:45:08;190.53;;;9.87;;
3979;SDS011;2004;52.452;13.120;2023-12-20T12:53:07;189.13;;;9.80;;
3979;SDS011;2004;52.452;13.120;2023-12-20T13:01:03;187.83;;;10.00;;
3979;SDS011;2004;52.452;13.120;2023-12-20T13:08:57;189.77;;;10.20;;
3979;SDS011;2004;52.452;13.120;2023-12-20T13:17:08;191.40;;;9.93;;
3979;SDS011;2004;52.452;13.120;2023-12-20T13:24:59;191.17;;;10.23;;
3979;SDS011;2004;52.452;13.120;2023-12-20T13:32:53;191.20;;;9.60;;
3979;SDS011;2004;52.452;13.120;2023-12-20T13:40:47;185.70;;;8.87;;
3979;SDS011;2004;52.452;13.120;2023-12-20T13:48:44;184.50;;;7.60;;
3979;SDS011;2004;52.452;13.120;2023-12-20T13:56:36;180.97;;;6.80;;
3979;SDS011;2004;52.452;13.120;2023-12-20T14:04:49;179.13;;;7.13;;
3979;SDS011;2004;52.452;13.120;2023-12-20T14:12:46;178.77;;;6.97;;
3979;SDS011;2004;52.452;13.120;2023-12-20T14:20:49;180.97;;;7.43;;
3979;SDS011;2004;52.452;13.120;2023-12-20T14:37:09;181.80;;;7.43;;
3979;SDS011;2004;52.452;13.120;2023-12-20T14:45:07;184.70;;;7.90;;
3979;SDS011;2004;52.452;13.120;2023-12-20T14:52:58;181.77;;;7.33;;
3979;SDS011;2004;52.452;13.120;2023-12-20T15:00:55;184.47;;;7.83;;
3979;SDS011;2004;52.452;13.120;2023-12-20T15:08:49;187.00;;;8.10;;
3979;SDS011;2004;52.452;13.120;2023-12-20T15:16:42;187.63;;;7.50;;
3979;SDS011;2004;52.452;13.120;2023-12-20T15:24:33;186.57;;;7.37;;
3979;SDS011;2004;52.452;13.120;2023-12-20T15:32:32;191.13;;;7.90;;
3979;SDS011;2004;52.452;13.120;2023-12-20T15:40:24;191.60;;;8.00;;
3979;SDS011;2004;52.452;13.120;2023-12-20T15:48:17;183.60;;;8.13;;
3979;SDS011;2004;52.452;13.120;2023-12-20T15:56:21;192.67;;;8.10;;
3979;SDS011;2004;52.452;13.120;2023-12-20T16:04:12;190.13;;;8.00;;
3979;SDS011;2004;52.452;13.120;2023-12-20T16:12:03;183.07;;;7.83;;
3979;SDS011;2004;52.452;13.120;2023-12-20T16:20:08;183.77;;;7.77;;
3979;SDS011;2004;52.452;13.120;2023-12-20T16:28:01;190.07;;;8.20;;
3979;SDS011;2004;52.452;13.120;2023-12-20T16:44:11;184.40;;;8.40;;
3979;SDS011;2004;52.452;13.120;2023-12-20T17:00:46;188.00;;;8.80;;
3979;SDS011;2004;52.452;13.120;2023-12-20T17:08:41;188.43;;;8.63;;
3979;SDS011;2004;52.452;13.120;2023-12-20T17:17:15;193.70;;;8.70;;
3979;SDS011;2004;52.452;13.120;2023-12-20T17:25:18;193.90;;;8.90;;
3979;SDS011;2004;52.452;13.120;2023-12-20T17:33:33;194.80;;;9.60;;
3979;SDS011;2004;52.452;13.120;2023-12-20T17:41:31;194.73;;;8.90;;
3979;SDS011;2004;52.452;13.120;2023-12-20T17:49:43;194.47;;;9.00;;
3979;SDS011;2004;52.452;13.120;2023-12-20T17:57:55;192.47;;;8.60;;
3979;SDS011;2004;52.452;13.120;2023-12-20T18:14:45;193.40;;;8.90;;
3979;SDS011;2004;52.452;13.120;2023-12-20T18:22:45;190.20;;;8.80;;
3979;SDS011;2004;52.452;13.120;2023-12-20T18:31:07;192.17;;;9.67;;
3979;SDS011;2004;52.452;13.120;2023-12-20T18:39:19;188.80;;;9.23;;
3979;SDS011;2004;52.452;13.120;2023-12-20T18:47:34;186.77;;;9.30;;
3979;SDS011;2004;52.452;13.120;2023-12-20T18:55:35;204.43;;;9.50;;
3979;SDS011;2004;52.452;13.120;2023-12-20T19:12:11;188.60;;;9.10;;
3979;SDS011;2004;52.452;13.120;2023-12-20T19:28:41;189.50;;;8.70;;
3979;SDS011;2004;52.452;13.120;2023-12-20T19:36:50;182.27;;;8.10;;
3979;SDS011;2004;52.452;13.120;2023-12-20T19:44:56;187.17;;;8.80;;
3979;SDS011;2004;52.452;13.120;2023-12-20T19:52:55;190.67;;;8.63;;
3979;SDS011;2004;52.452;13.120;2023-12-20T20:00:51;186.53;;;8.73;;
3979;SDS011;2004;52.452;13.120;2023-12-20T20:09:49;188.70;;;8.33;;
3979;SDS011;2004;52.452;13.120;2023-12-20T20:17:41;190.67;;;9.30;;
3979;SDS011;2004;52.452;13.120;2023-12-20T20:25:39;188.73;;;8.50;;
3979;SDS011;2004;52.452;13.120;2023-12-20T20:34:03;187.20;;;7.73;;
3979;SDS011;2004;52.452;13.120;2023-12-20T20:41:58;183.47;;;8.30;;
3979;SDS011;2004;52.452;13.120;2023-12-20T20:50:10;187.30;;;8.10;;
3979;SDS011;2004;52.452;13.120;2023-12-20T20:58:10;188.97;;;7.77;;
3979;SDS011;2004;52.452;13.120;2023-12-20T21:06:21;183.87;;;8.33;;
3979;SDS011;2004;52.452;13.120;2023-12-20T21:14:30;185.10;;;8.27;;
3979;SDS011;2004;52.452;13.120;2023-12-20T21:22:33;187.93;;;7.90;;
3979;SDS011;2004;52.452;13.120;2023-12-20T21:30:36;186.77;;;7.50;;
3979;SDS011;2004;52.452;13.120;2023-12-20T21:38:43;183.63;;;7.80;;
3979;SDS011;2004;52.452;13.120;2023-12-20T21:46:51;185.47;;;7.87;;
3979;SDS011;2004;52.452;13.120;2023-12-20T21:55:00;192.60;;;7.37;;
3979;SDS011;2004;52.452;13.120;2023-12-20T22:02:51;183.57;;;7.83;;
3979;SDS011;2004;52.452;13.120;2023-12-20T22:10:54;183.20;;;7.73;;
3979;SDS011;2004;52.452;13.120;2023-12-20T22:18:45;188.17;;;8.37;;
3979;SDS011;2004;52.452;13.120;2023-12-20T22:26:36;186.73;;;8.00;;
3979;SDS011;2004;52.452;13.120;2023-12-20T22:34:27;185.40;;;8.10;;
3979;SDS011;2004;52.452;13.120;2023-12-20T22:42:24;186.30;;;8.13;;
3979;SDS011;2004;52.452;13.120;2023-12-20T22:50:15;186.50;;;7.90;;
3979;SDS011;2004;52.452;13.120;2023-12-20T22:58:08;185.50;;;8.27;;
3979;SDS011;2004;52.452;13.120;2023-12-20T23:05:59;186.10;;;8.13;;
3979;SDS011;2004;52.452;13.120;2023-12-20T23:13:52;184.93;;;8.60;;
3979;SDS011;2004;52.452;13.120;2023-12-20T23:21:43;182.50;;;8.87;;
3979;SDS011;2004;52.452;13.120;2023-12-20T23:29:34;185.67;;;8.40;;
3979;SDS011;2004;52.452;13.120;2023-12-20T23:37:25;183.50;;;8.87;;
3979;SDS011;2004;52.452;13.120;2023-12-20T23:45:16;183.57;;;9.50;;
3979;SDS011;2004;52.452;13.120;2023-12-20T23:53:07;186.67;;;10.13;;
